Time;durP1;ratioP1;P1;durP2;ratioP2;P2;SDS_P1;SDS_P2;PMS_P1;PMS_P2;Temp;Humidity;BMP_temperature;BMP_pressure;BME280_temperature;BME280_humidity;BME280_pressure;Samples;Min_cycle;Max_cycle;Signal;HPM_P1;HPM_P2
2022/09/29 00:01:23;;;;;;;;;;;16.40;69.80;;;;;;4999093;28;92615;-42
2022/09/29 00:03:49;;;;;;;;;;;16.40;69.80;;;;;;5000623;28;94165;-42
2022/09/29 00:06:16;;;;;;;;;;;16.40;69.80;;;;;;4998698;28;93530;-42
2022/09/29 00:08:41;;;;;;;;;;;16.30;69.80;;;;;;4996404;28;96295;-42
2022/09/29 00:11:08;;;;;;;;;;;16.30;69.80;;;;;;4998756;28;92072;-42
2022/09/29 00:13:33;;;;;;;;;;;16.30;69.80;;;;;;4998866;28;92510;-42
2022/09/29 00:16:00;;;;;;;;;;;16.30;69.80;;;;;;4998451;28;93125;-42
2022/09/29 00:18:26;;;;;;;;;;;16.30;69.80;;;;;;4998646;28;92171;-42
2022/09/29 00:21:02;;;;;;;;;;;16.30;69.80;;;;;;4998732;28;92212;-42
2022/09/29 00:23:29;;;;;;;;;;;16.30;70.40;;;;;;4997799;28;95809;-42
2022/09/29 00:25:58;;;;;;;;;;;16.30;69.90;;;;;;5001621;28;92084;-42
2022/09/29 00:28:23;;;;;;;;;;;16.30;69.90;;;;;;4997436;28;94089;-42
2022/09/29 00:30:49;;;;;;;;;;;16.30;69.90;;;;;;5001008;28;92164;-42
2022/09/29 00:33:14;;;;;;;;;;;16.30;69.80;;;;;;5001985;28;92470;-42
2022/09/29 00:35:40;;;;;;;;;;;16.30;69.90;;;;;;5000960;28;92368;-42
2022/09/29 00:38:05;;;;;;;;;;;16.30;69.90;;;;;;5001887;28;93027;-42
2022/09/29 00:40:31;;;;;;;;;;;16.20;69.80;;;;;;5001780;28;92354;-42
2022/09/29 00:42:56;;;;;;;;;;;16.30;69.90;;;;;;5001446;28;92989;-42
2022/09/29 00:45:23;;;;;;;;;;;16.20;69.80;;;;;;5002146;28;91396;-42
2022/09/29 00:48:10;;;;;;;;;;;16.20;69.80;;;;;;5004451;28;92148;-42
2022/09/29 00:50:42;;;;;;;;;;;16.20;69.80;;;;;;5001733;28;92033;-42
2022/09/29 00:53:11;;;;;;;;;;;16.20;69.90;;;;;;5000906;28;92960;-42
2022/09/29 00:55:38;;;;;;;;;;;16.20;69.90;;;;;;5000799;28;92994;-42
2022/09/29 00:58:12;;;;;;;;;;;16.20;69.90;;;;;;5001156;28;92183;-42
2022/09/29 01:00:37;;;;;;;;;;;16.20;69.90;;;;;;5001117;28;92581;-42
2022/09/29 01:03:12;;;;;;;;;;;16.20;69.90;;;;;;5001050;28;92979;-42
2022/09/29 01:05:39;;;;;;;;;;;16.20;69.90;;;;;;5001159;28;92260;-42
2022/09/29 01:08:10;;;;;;;;;;;16.20;70.00;;;;;;5001328;28;92682;-42
2022/09/29 01:10:36;;;;;;;;;;;16.20;70.00;;;;;;5004067;28;92226;-42
2022/09/29 01:13:02;;;;;;;;;;;16.10;69.90;;;;;;5001435;28;91920;-42
2022/09/29 01:15:28;;;;;;;;;;;16.20;70.00;;;;;;5000407;28;93193;-42
2022/09/29 01:17:54;;;;;;;;;;;16.20;70.00;;;;;;5000487;28;93118;-42
2022/09/29 01:20:21;;;;;;;;;;;16.20;70.00;;;;;;5001207;28;92445;-42
2022/09/29 01:22:46;;;;;;;;;;;16.10;70.00;;;;;;5000739;28;93299;-42
2022/09/29 01:25:31;;;;;;;;;;;16.10;70.00;;;;;;5001101;28;92178;-42
2022/09/29 01:28:16;;;;;;;;;;;16.10;70.10;;;;;;5001042;28;92524;-42
2022/09/29 01:30:42;;;;;;;;;;;16.10;70.00;;;;;;4999724;28;93232;-42
2022/09/29 01:33:14;;;;;;;;;;;16.10;70.10;;;;;;5004190;28;92047;-42
2022/09/29 01:35:40;;;;;;;;;;;16.10;70.00;;;;;;5001077;28;92259;-42
2022/09/29 01:38:05;;;;;;;;;;;16.10;70.00;;;;;;5000741;28;92159;-42
2022/09/29 01:40:40;;;;;;;;;;;16.10;70.00;;;;;;5000750;28;92436;-42
2022/09/29 01:43:13;;;;;;;;;;;16.10;70.00;;;;;;4999148;28;93589;-42
2022/09/29 01:45:42;;;;;;;;;;;16.10;70.10;;;;;;5000885;28;92191;-42
2022/09/29 01:48:14;;;;;;;;;;;16.10;70.10;;;;;;5000535;28;92309;-42
2022/09/29 01:50:42;;;;;;;;;;;16.10;70.10;;;;;;4999900;28;92309;-42
2022/09/29 01:53:10;;;;;;;;;;;16.00;70.10;;;;;;5003547;28;92151;-42
2022/09/29 01:55:40;;;;;;;;;;;16.10;70.10;;;;;;5000078;28;93029;-42
2022/09/29 01:58:08;;;;;;;;;;;16.00;70.00;;;;;;5000504;28;92249;-42
2022/09/29 02:00:39;;;;;;;;;;;16.00;70.10;;;;;;5001003;28;92505;-42
2022/09/29 02:03:16;;;;;;;;;;;16.00;70.10;;;;;;5000116;28;93299;-42
2022/09/29 02:05:41;;;;;;;;;;;16.00;70.10;;;;;;5000656;28;91996;-42
2022/09/29 02:08:14;;;;;;;;;;;16.00;70.20;;;;;;4999874;28;93073;-42
2022/09/29 02:10:44;;;;;;;;;;;16.00;70.10;;;;;;4999711;28;93112;-42
2022/09/29 02:13:11;;;;;;;;;;;16.00;70.20;;;;;;5000123;28;92214;-42
2022/09/29 02:15:39;;;;;;;;;;;16.00;70.20;;;;;;5002778;28;92336;-42
2022/09/29 02:18:11;;;;;;;;;;;16.00;70.30;;;;;;5000171;28;92162;-42
2022/09/29 02:20:37;;;;;;;;;;;15.90;70.20;;;;;;5000487;28;93272;-42
2022/09/29 02:23:02;;;;;;;;;;;16.00;70.30;;;;;;4999604;28;93229;-42
2022/09/29 02:25:28;;;;;;;;;;;16.00;70.20;;;;;;5000612;28;91452;-42
2022/09/29 02:27:53;;;;;;;;;;;16.00;70.20;;;;;;5000230;28;92057;-42
2022/09/29 02:30:19;;;;;;;;;;;16.00;70.20;;;;;;4999572;28;93245;-42
2022/09/29 02:32:47;;;;;;;;;;;15.90;70.20;;;;;;4999597;28;93083;-42
2022/09/29 02:35:13;;;;;;;;;;;16.00;70.20;;;;;;5000294;28;93317;-42
2022/09/29 02:37:39;;;;;;;;;;;15.90;70.30;;;;;;5002604;28;91886;-42
2022/09/29 02:40:18;;;;;;;;;;;15.90;70.20;;;;;;5000040;28;92445;-42
2022/09/29 02:42:46;;;;;;;;;;;15.90;70.30;;;;;;4999540;28;93042;-42
2022/09/29 02:45:18;;;;;;;;;;;15.90;70.30;;;;;;4999667;28;92485;-42
2022/09/29 02:47:46;;;;;;;;;;;15.90;70.20;;;;;;5000030;28;92427;-42
2022/09/29 02:50:24;;;;;;;;;;;15.90;70.20;;;;;;4999935;28;92326;-42
2022/09/29 02:52:49;;;;;;;;;;;15.90;70.30;;;;;;4999270;28;92224;-42
2022/09/29 02:55:18;;;;;;;;;;;15.90;70.40;;;;;;4999242;28;92401;-42
2022/09/29 02:57:46;;;;;;;;;;;15.90;70.30;;;;;;4998071;28;93118;-42
2022/09/29 03:00:13;;;;;;;;;;;15.90;70.20;;;;;;5002773;28;92099;-42
2022/09/29 03:02:39;;;;;;;;;;;15.90;70.30;;;;;;4999039;28;93140;-42
2022/09/29 03:05:07;;;;;;;;;;;15.90;70.20;;;;;;4999557;28;92181;-42
2022/09/29 03:07:32;;;;;;;;;;;15.90;70.30;;;;;;4999668;28;92396;-42
2022/09/29 03:09:58;;;;;;;;;;;15.90;70.30;;;;;;4998461;28;92642;-42
2022/09/29 03:12:23;;;;;;;;;;;15.90;70.30;;;;;;4999318;28;92060;-42
2022/09/29 03:14:49;;;;;;;;;;;15.90;70.30;;;;;;4999988;28;91561;-42
2022/09/29 03:17:14;;;;;;;;;;;15.90;70.80;;;;;;4998954;28;93015;-42
2022/09/29 03:19:40;;;;;;;;;;;15.90;70.30;;;;;;4999595;28;92556;-42
2022/09/29 03:22:05;;;;;;;;;;;15.80;70.30;;;;;;5001426;28;92851;-42
2022/09/29 03:24:31;;;;;;;;;;;15.80;70.30;;;;;;4999334;28;92227;-42
2022/09/29 03:26:56;;;;;;;;;;;15.80;70.40;;;;;;4997669;28;95473;-42
2022/09/29 03:29:22;;;;;;;;;;;15.80;70.40;;;;;;4998776;28;93171;-42
2022/09/29 03:31:47;;;;;;;;;;;15.80;70.30;;;;;;4999383;28;92182;-42
2022/09/29 03:34:13;;;;;;;;;;;15.80;70.50;;;;;;4999134;28;92341;-42
2022/09/29 03:36:40;;;;;;;;;;;15.80;70.40;;;;;;4998647;28;93157;-42
2022/09/29 03:39:06;;;;;;;;;;;15.80;70.40;;;;;;4999506;28;91358;-42
2022/09/29 03:41:31;;;;;;;;;;;15.80;70.40;;;;;;4998870;28;92037;-42
2022/09/29 03:43:57;;;;;;;;;;;15.80;70.50;;;;;;5001802;28;93103;-42
2022/09/29 03:46:23;;;;;;;;;;;15.80;70.40;;;;;;4998735;28;93087;-42
2022/09/29 03:48:49;;;;;;;;;;;15.80;70.50;;;;;;4998574;28;93213;-42
2022/09/29 03:51:14;;;;;;;;;;;15.80;70.40;;;;;;4999032;28;92167;-42
2022/09/29 03:53:40;;;;;;;;;;;15.80;70.40;;;;;;4998969;28;92504;-42
2022/09/29 03:56:05;;;;;;;;;;;15.80;70.40;;;;;;4998220;28;93136;-42
2022/09/29 03:58:31;;;;;;;;;;;15.80;70.40;;;;;;4998797;28;92140;-42
2022/09/29 04:00:56;;;;;;;;;;;15.80;70.40;;;;;;4999061;28;92072;-42
2022/09/29 04:03:22;;;;;;;;;;;15.80;70.50;;;;;;5001778;28;92465;-42
2022/09/29 04:05:47;;;;;;;;;;;15.70;70.40;;;;;;5001128;28;92015;-42
2022/09/29 04:08:14;;;;;;;;;;;15.80;70.50;;;;;;5001870;28;93213;-42
2022/09/29 04:10:39;;;;;;;;;;;15.70;70.40;;;;;;5001085;28;93086;-42
2022/09/29 04:13:05;;;;;;;;;;;15.70;70.30;;;;;;5002293;28;93346;-42
2022/09/29 04:15:31;;;;;;;;;;;15.70;70.30;;;;;;5001558;28;93491;-42
2022/09/29 04:17:57;;;;;;;;;;;15.70;70.40;;;;;;5000732;28;92218;-42
2022/09/29 04:20:23;;;;;;;;;;;15.70;70.40;;;;;;5002196;28;92282;-42
2022/09/29 04:22:48;;;;;;;;;;;15.70;70.40;;;;;;5001577;28;93011;-42
2022/09/29 04:25:14;;;;;;;;;;;15.70;70.60;;;;;;5005111;28;92001;-42
2022/09/29 04:27:39;;;;;;;;;;;15.70;70.40;;;;;;5001804;28;92215;-42
2022/09/29 04:30:05;;;;;;;;;;;15.60;70.40;;;;;;5002240;28;93048;-42
2022/09/29 04:32:31;;;;;;;;;;;15.60;70.50;;;;;;5001687;28;92422;-42
2022/09/29 04:34:57;;;;;;;;;;;15.70;70.60;;;;;;5000375;28;95543;-42
2022/09/29 04:37:22;;;;;;;;;;;15.60;70.40;;;;;;5001828;28;92163;-42
2022/09/29 04:39:48;;;;;;;;;;;15.60;70.40;;;;;;5001711;28;92314;-42
2022/09/29 04:42:13;;;;;;;;;;;15.60;70.50;;;;;;5001205;28;92873;-42
2022/09/29 04:44:39;;;;;;;;;;;15.60;70.50;;;;;;5001860;28;92111;-42
2022/09/29 04:47:04;;;;;;;;;;;15.60;70.60;;;;;;5004376;28;92572;-42
2022/09/29 04:49:30;;;;;;;;;;;15.60;70.60;;;;;;5001745;28;92171;-42
2022/09/29 04:51:55;;;;;;;;;;;15.60;70.50;;;;;;5002169;28;91377;-42
2022/09/29 04:54:21;;;;;;;;;;;15.60;70.50;;;;;;5001089;28;93092;-42
2022/09/29 04:56:47;;;;;;;;;;;15.60;70.60;;;;;;5001381;28;92262;-42
2022/09/29 04:59:12;;;;;;;;;;;15.60;71.10;;;;;;5000765;28;93077;-42
2022/09/29 05:01:38;;;;;;;;;;;15.60;70.60;;;;;;5000916;28;93011;-42
2022/09/29 05:04:03;;;;;;;;;;;15.60;70.60;;;;;;5001446;28;92192;-42
2022/09/29 05:06:29;;;;;;;;;;;15.60;70.50;;;;;;5001679;28;92629;-42
2022/09/29 05:08:54;;;;;;;;;;;15.60;70.60;;;;;;5003869;28;93022;-42
2022/09/29 05:11:20;;;;;;;;;;;15.60;70.60;;;;;;5001046;28;92064;-42
2022/09/29 05:13:48;;;;;;;;;;;15.60;70.60;;;;;;5000785;28;93196;-42
2022/09/29 05:16:14;;;;;;;;;;;15.50;70.50;;;;;;5000528;28;91483;-42
2022/09/29 05:18:39;;;;;;;;;;;15.60;70.40;;;;;;5001392;28;91989;-42
2022/09/29 05:21:05;;;;;;;;;;;15.60;70.50;;;;;;5000798;28;93313;-41
2022/09/29 05:23:31;;;;;;;;;;;15.60;70.40;;;;;;5000702;28;93046;-42
2022/09/29 05:26:00;;;;;;;;;;;15.60;70.30;;;;;;5001163;28;93353;-42
2022/09/29 05:28:25;;;;;;;;;;;15.60;70.50;;;;;;5000672;28;93222;-42
2022/09/29 05:30:51;;;;;;;;;;;15.60;70.50;;;;;;5004188;28;92102;-42
2022/09/29 05:33:16;;;;;;;;;;;15.60;70.50;;;;;;5000303;28;93147;-42
2022/09/29 05:35:42;;;;;;;;;;;15.50;70.50;;;;;;5000850;28;92170;-42
2022/09/29 05:38:07;;;;;;;;;;;15.60;70.50;;;;;;5001031;28;92446;-42
2022/09/29 05:40:34;;;;;;;;;;;15.50;70.40;;;;;;5000907;28;92632;-42
2022/09/29 05:43:00;;;;;;;;;;;15.50;70.40;;;;;;5001022;28;92141;-42
2022/09/29 05:45:25;;;;;;;;;;;15.60;70.50;;;;;;5000952;28;92217;-42
2022/09/29 05:47:52;;;;;;;;;;;15.60;70.50;;;;;;4999814;28;94045;-42
2022/09/29 05:50:18;;;;;;;;;;;15.60;70.40;;;;;;5000471;28;92043;-42
2022/09/29 05:52:47;;;;;;;;;;;15.60;70.50;;;;;;5003428;28;92543;-42
2022/09/29 05:55:13;;;;;;;;;;;15.60;70.40;;;;;;5000529;28;92067;-42
2022/09/29 05:57:38;;;;;;;;;;;15.60;70.40;;;;;;5000253;28;92366;-42
2022/09/29 06:00:05;;;;;;;;;;;15.60;70.40;;;;;;5000259;28;93236;-42
2022/09/29 06:02:31;;;;;;;;;;;15.60;70.20;;;;;;5000470;28;92075;-42
2022/09/29 06:04:57;;;;;;;;;;;15.60;70.20;;;;;;5001056;28;93102;-42
2022/09/29 06:07:22;;;;;;;;;;;15.60;70.20;;;;;;4999967;28;93183;-42
2022/09/29 06:09:47;;;;;;;;;;;15.60;70.30;;;;;;4999905;28;92195;-42
2022/09/29 06:12:13;;;;;;;;;;;15.60;70.30;;;;;;5002153;28;93054;-42
2022/09/29 06:14:38;;;;;;;;;;;15.60;70.20;;;;;;5000315;28;92187;-42
2022/09/29 06:17:04;;;;;;;;;;;15.60;70.30;;;;;;5000413;28;92280;-42
2022/09/29 06:19:29;;;;;;;;;;;15.60;70.20;;;;;;4999862;28;93077;-42
2022/09/29 06:21:55;;;;;;;;;;;15.60;70.30;;;;;;5000492;28;92192;-42
2022/09/29 06:24:20;;;;;;;;;;;15.60;70.20;;;;;;5000275;28;92401;-42
2022/09/29 06:26:46;;;;;;;;;;;15.60;70.20;;;;;;4999456;28;93192;-42
2022/09/29 06:29:11;;;;;;;;;;;15.60;70.20;;;;;;5000354;28;91513;-42
2022/09/29 06:31:38;;;;;;;;;;;15.60;70.20;;;;;;5000232;28;92082;-42
2022/09/29 06:34:03;;;;;;;;;;;15.70;70.10;;;;;;5002718;28;92965;-42
2022/09/29 06:39:15;;;;;;;;;;;15.70;70.00;;;;;;4999398;28;92411;-42
2022/09/29 06:41:43;;;;;;;;;;;15.70;70.10;;;;;;5000029;28;92459;-42
2022/09/29 06:44:09;;;;;;;;;;;15.70;70.20;;;;;;5000199;28;93286;-42
2022/09/29 06:46:34;;;;;;;;;;;15.70;70.20;;;;;;4999578;28;92260;-42
2022/09/29 06:49:00;;;;;;;;;;;15.70;70.20;;;;;;4999757;28;92070;-42
2022/09/29 06:51:26;;;;;;;;;;;15.70;70.20;;;;;;4999771;28;92458;-43
2022/09/29 06:53:51;;;;;;;;;;;15.70;70.20;;;;;;4999628;28;92612;-42
2022/09/29 06:56:17;;;;;;;;;;;15.70;70.10;;;;;;5002733;28;92139;-42
2022/09/29 06:58:44;;;;;;;;;;;15.70;70.10;;;;;;4998721;28;93209;-42
2022/09/29 07:01:09;;;;;;;;;;;15.80;70.10;;;;;;4999153;28;93066;-42
2022/09/29 07:03:35;;;;;;;;;;;15.80;70.10;;;;;;4999692;28;93697;-42
2022/09/29 07:06:01;;;;;;;;;;;15.80;70.10;;;;;;4998939;28;93028;-42
2022/09/29 07:08:27;;;;;;;;;;;15.80;70.00;;;;;;4998965;28;92272;-42
2022/09/29 07:10:53;;;;;;;;;;;15.80;70.00;;;;;;4999682;28;92387;-42
2022/09/29 07:13:18;;;;;;;;;;;15.80;69.80;;;;;;4999003;28;93220;-42
2022/09/29 07:15:46;;;;;;;;;;;15.80;69.80;;;;;;4999382;28;92294;-42
2022/09/29 07:18:11;;;;;;;;;;;15.80;69.90;;;;;;5002438;28;92238;-42
2022/09/29 07:20:37;;;;;;;;;;;15.80;70.40;;;;;;4999508;28;92281;-42
2022/09/29 07:23:02;;;;;;;;;;;15.80;69.80;;;;;;4999293;28;92352;-42
2022/09/29 07:25:28;;;;;;;;;;;15.80;69.70;;;;;;4998023;28;94170;-42
2022/09/29 07:27:53;;;;;;;;;;;15.80;69.80;;;;;;4999435;28;92186;-42
2022/09/29 07:30:19;;;;;;;;;;;15.80;69.70;;;;;;4999256;28;92667;-42
2022/09/29 07:32:45;;;;;;;;;;;15.80;70.00;;;;;;4998784;28;92929;-42
2022/09/29 07:35:10;;;;;;;;;;;15.80;69.70;;;;;;4998944;28;92309;-42
2022/09/29 07:37:36;;;;;;;;;;;15.90;69.90;;;;;;4999149;28;92511;-42
2022/09/29 07:40:02;;;;;;;;;;;15.90;69.80;;;;;;5004730;28;93303;-42
2022/09/29 07:42:28;;;;;;;;;;;15.90;70.00;;;;;;5006256;28;92385;-42
2022/09/29 07:44:54;;;;;;;;;;;15.80;70.20;;;;;;5005108;28;93053;-42
2022/09/29 07:47:19;;;;;;;;;;;15.80;70.30;;;;;;5005510;28;91996;-42
2022/09/29 07:49:45;;;;;;;;;;;15.90;70.40;;;;;;5005123;28;92924;-42
2022/09/29 07:52:11;;;;;;;;;;;15.90;70.20;;;;;;5004981;28;93317;-42
2022/09/29 07:54:36;;;;;;;;;;;15.90;70.30;;;;;;5005202;28;92221;-42
2022/09/29 07:57:02;;;;;;;;;;;15.90;70.40;;;;;;5005600;28;92441;-42
2022/09/29 07:59:28;;;;;;;;;;;15.90;70.30;;;;;;5004789;28;92284;-42
2022/09/29 08:01:54;;;;;;;;;;;15.90;70.30;;;;;;5008289;28;91818;-42
2022/09/29 08:04:20;;;;;;;;;;;15.90;70.50;;;;;;5004912;28;92574;-42
2022/09/29 08:06:46;;;;;;;;;;;15.90;70.50;;;;;;5005866;28;91435;-42
2022/09/29 08:09:12;;;;;;;;;;;15.90;70.70;;;;;;5004863;28;92222;-42
2022/09/29 08:11:39;;;;;;;;;;;15.90;70.40;;;;;;5004969;28;93279;-42
2022/09/29 08:14:04;;;;;;;;;;;15.90;70.60;;;;;;5004763;28;94266;-42
2022/09/29 08:16:31;;;;;;;;;;;15.90;70.60;;;;;;5005081;28;93590;-42
2022/09/29 08:18:57;;;;;;;;;;;15.90;70.70;;;;;;5004947;28;93265;-42
2022/09/29 08:21:22;;;;;;;;;;;15.90;70.60;;;;;;5008374;28;92133;-42
2022/09/29 08:23:48;;;;;;;;;;;15.90;70.70;;;;;;5004596;28;93032;-42
2022/09/29 08:26:15;;;;;;;;;;;15.90;70.70;;;;;;5005377;28;92134;-42
2022/09/29 08:28:41;;;;;;;;;;;15.90;70.70;;;;;;5005119;28;92229;-42
2022/09/29 08:31:06;;;;;;;;;;;15.90;70.60;;;;;;5004996;28;92440;-42
2022/09/29 08:33:33;;;;;;;;;;;16.00;70.70;;;;;;5005037;28;92126;-42
2022/09/29 08:36:00;;;;;;;;;;;16.00;70.90;;;;;;5004940;28;92384;-42
2022/09/29 08:38:26;;;;;;;;;;;16.00;70.90;;;;;;5003485;28;93818;-42
2022/09/29 08:40:53;;;;;;;;;;;16.00;70.90;;;;;;5005022;28;92171;-42
2022/09/29 08:43:29;;;;;;;;;;;16.00;70.80;;;;;;5007512;28;92497;-42
2022/09/29 08:46:00;;;;;;;;;;;16.00;70.90;;;;;;5004951;28;92110;-43
2022/09/29 08:48:28;;;;;;;;;;;16.00;70.80;;;;;;5004634;28;92272;-42
2022/09/29 08:51:04;;;;;;;;;;;16.00;70.80;;;;;;5003155;28;92338;-42
2022/09/29 08:53:31;;;;;;;;;;;16.10;71.00;;;;;;5001351;28;92136;-42
2022/09/29 08:56:02;;;;;;;;;;;16.10;70.90;;;;;;5001633;28;91565;-42
2022/09/29 08:58:28;;;;;;;;;;;16.00;71.00;;;;;;5000269;28;92918;-42
2022/09/29 09:00:56;;;;;;;;;;;16.10;71.10;;;;;;5001254;28;92384;-42
2022/09/29 09:03:40;;;;;;;;;;;16.10;70.90;;;;;;5000947;28;93016;-42
2022/09/29 09:06:06;;;;;;;;;;;16.10;71.00;;;;;;5003957;28;93213;-42
2022/09/29 09:08:31;;;;;;;;;;;16.10;70.90;;;;;;5000963;28;92446;-42
2022/09/29 09:10:57;;;;;;;;;;;16.10;70.80;;;;;;5000825;28;93211;-42
2022/09/29 09:13:58;;;;;;;;;;;16.20;70.90;;;;;;5001309;28;92126;-42
2022/09/29 09:16:35;;;;;;;;;;;16.20;70.90;;;;;;4978837;28;92463;-42
2022/09/29 09:19:19;;;;;;;;;;;16.20;71.50;;;;;;4997630;28;93908;-42
2022/09/29 09:22:06;;;;;;;;;;;16.20;70.80;;;;;;5001662;28;91378;-42
2022/09/29 09:24:31;;;;;;;;;;;16.20;70.90;;;;;;5001112;28;92072;-42
2022/09/29 09:26:57;;;;;;;;;;;16.20;70.90;;;;;;5000520;28;93180;-42
2022/09/29 09:29:33;;;;;;;;;;;16.20;70.70;;;;;;5003574;28;93089;-42
2022/09/29 09:32:00;;;;;;;;;;;16.20;70.90;;;;;;5000201;28;93064;-42
2022/09/29 09:34:26;;;;;;;;;;;16.20;70.70;;;;;;5000726;28;92107;-42
2022/09/29 09:36:55;;;;;;;;;;;16.20;71.10;;;;;;5000809;28;92358;-42
2022/09/29 09:39:32;;;;;;;;;;;16.20;70.80;;;;;;4999988;28;93829;-42
2022/09/29 09:42:00;;;;;;;;;;;16.20;70.90;;;;;;5000845;28;92032;-42
2022/09/29 09:44:32;;;;;;;;;;;16.30;70.90;;;;;;5000750;28;92313;-42
2022/09/29 09:47:15;;;;;;;;;;;16.30;70.70;;;;;;5000576;28;91719;-42
2022/09/29 09:49:44;;;;;;;;;;;16.30;70.80;;;;;;5000721;28;92183;-43
2022/09/29 09:52:10;;;;;;;;;;;16.30;70.90;;;;;;5002966;28;92774;-42
2022/09/29 09:54:38;;;;;;;;;;;16.30;70.80;;;;;;4998221;28;93117;-42
2022/09/29 09:57:23;;;;;;;;;;;16.30;70.90;;;;;;5000373;28;93366;-42
2022/09/29 09:59:51;;;;;;;;;;;16.30;70.70;;;;;;4999511;28;92865;-42
2022/09/29 10:02:19;;;;;;;;;;;16.40;70.90;;;;;;4999822;28;92125;-42
2022/09/29 10:04:47;;;;;;;;;;;16.30;71.00;;;;;;5000324;28;92342;-42
2022/09/29 10:07:12;;;;;;;;;;;16.40;70.90;;;;;;4999847;28;92338;-42
2022/09/29 10:09:38;;;;;;;;;;;16.40;70.90;;;;;;4999841;28;92220;-42
2022/09/29 10:12:03;;;;;;;;;;;16.40;70.90;;;;;;5003485;28;92795;-42
2022/09/29 10:14:29;;;;;;;;;;;16.40;70.90;;;;;;5000039;28;92173;-42
2022/09/29 10:17:01;;;;;;;;;;;16.40;70.90;;;;;;4998750;28;94123;-42
2022/09/29 10:19:45;;;;;;;;;;;16.40;70.90;;;;;;4998821;28;93327;-42
2022/09/29 10:22:12;;;;;;;;;;;16.40;70.70;;;;;;5000161;28;92484;-42
2022/09/29 10:24:37;;;;;;;;;;;16.50;70.80;;;;;;5000196;28;92322;-42
2022/09/29 10:27:03;;;;;;;;;;;16.50;70.80;;;;;;4999471;28;93243;-43
2022/09/29 10:29:41;;;;;;;;;;;16.50;70.70;;;;;;4999895;28;92207;-42
2022/09/29 10:32:21;;;;;;;;;;;16.50;70.70;;;;;;4999857;28;92469;-42
2022/09/29 10:35:01;;;;;;;;;;;16.50;70.70;;;;;;5002590;28;92267;-42
2022/09/29 10:37:34;;;;;;;;;;;16.50;70.80;;;;;;5000367;28;92858;-42
2022/09/29 10:40:16;;;;;;;;;;;16.60;70.90;;;;;;4999259;28;92938;-42
2022/09/29 10:42:44;;;;;;;;;;;16.60;70.80;;;;;;4999952;28;92388;-42
2022/09/29 10:45:14;;;;;;;;;;;16.60;70.80;;;;;;4999047;28;93021;-42
2022/09/29 10:47:46;;;;;;;;;;;16.60;70.70;;;;;;4999246;28;92413;-42
2022/09/29 10:50:13;;;;;;;;;;;16.60;70.70;;;;;;4999705;28;92955;-42
2022/09/29 10:52:43;;;;;;;;;;;16.60;70.90;;;;;;4999729;28;92431;-42
2022/09/29 10:55:15;;;;;;;;;;;16.60;70.80;;;;;;4999012;28;92963;-42
2022/09/29 10:57:41;;;;;;;;;;;16.70;70.80;;;;;;5002969;28;92044;-43
2022/09/29 11:00:22;;;;;;;;;;;16.70;70.80;;;;;;4999045;28;93126;-42
2022/09/29 11:02:48;;;;;;;;;;;16.70;70.90;;;;;;5000133;28;91430;-42
2022/09/29 11:05:19;;;;;;;;;;;16.70;70.80;;;;;;4999614;28;92032;-42
2022/09/29 11:07:45;;;;;;;;;;;16.70;70.80;;;;;;4998829;28;92898;-42
2022/09/29 11:10:28;;;;;;;;;;;16.70;70.70;;;;;;4998610;28;93099;-42
2022/09/29 11:12:54;;;;;;;;;;;16.80;70.80;;;;;;4999501;28;93318;-42
2022/09/29 11:15:22;;;;;;;;;;;16.80;70.80;;;;;;4997341;28;93361;-42
2022/09/29 11:17:49;;;;;;;;;;;16.80;70.90;;;;;;4999352;28;92596;-42
2022/09/29 11:20:15;;;;;;;;;;;16.80;70.80;;;;;;5001857;28;92801;-43
2022/09/29 11:22:56;;;;;;;;;;;16.80;70.80;;;;;;4999398;28;92123;-42
2022/09/29 11:25:33;;;;;;;;;;;16.80;70.80;;;;;;4999522;28;92410;-42
2022/09/29 11:28:28;;;;;;;;;;;16.80;70.80;;;;;;4998932;28;92592;-42
2022/09/29 11:31:10;;;;;;;;;;;16.90;70.70;;;;;;4993692;28;92211;-42
2022/09/29 11:33:52;;;;;;;;;;;16.90;70.70;;;;;;4999254;28;92131;-42
2022/09/29 11:36:31;;;;;;;;;;;16.90;70.60;;;;;;4997787;28;94320;-42
2022/09/29 11:38:56;;;;;;;;;;;16.90;70.60;;;;;;4999333;28;92105;-42
2022/09/29 11:41:35;;;;;;;;;;;16.90;70.60;;;;;;4999053;28;92312;-42
2022/09/29 11:44:09;;;;;;;;;;;17.00;70.60;;;;;;5001738;28;93079;-42
2022/09/29 11:46:35;;;;;;;;;;;17.00;70.50;;;;;;4999003;28;92243;-42
2022/09/29 11:49:03;;;;;;;;;;;17.00;70.50;;;;;;4998469;28;93079;-42
2022/09/29 11:51:38;;;;;;;;;;;17.00;70.70;;;;;;4998883;28;92135;-42
2022/09/29 11:54:07;;;;;;;;;;;17.00;70.70;;;;;;4999390;28;92514;-42
2022/09/29 11:56:44;;;;;;;;;;;17.00;70.70;;;;;;4998107;28;92971;-42
2022/09/29 11:59:26;;;;;;;;;;;17.00;70.50;;;;;;4998751;28;92641;-42
2022/09/29 12:02:00;;;;;;;;;;;17.00;70.50;;;;;;4998459;28;93040;-42
2022/09/29 12:04:42;;;;;;;;;;;17.10;70.60;;;;;;4998442;28;93134;-42
2022/09/29 12:07:17;;;;;;;;;;;17.10;70.50;;;;;;5001919;28;92023;-42
2022/09/29 12:09:54;;;;;;;;;;;17.10;70.60;;;;;;4997454;28;93211;-43
2022/09/29 12:12:23;;;;;;;;;;;17.10;70.50;;;;;;4998714;28;92203;-42
2022/09/29 12:15:00;;;;;;;;;;;17.20;70.50;;;;;;4998560;28;92321;-42
2022/09/29 12:17:30;;;;;;;;;;;17.20;70.50;;;;;;4998257;28;93052;-42
2022/09/29 12:20:13;;;;;;;;;;;17.20;70.40;;;;;;4998879;28;91384;-42
2022/09/29 12:22:38;;;;;;;;;;;17.20;70.40;;;;;;4998666;28;92000;-42
2022/09/29 12:25:05;;;;;;;;;;;17.20;70.40;;;;;;4998041;28;93200;-42
2022/09/29 12:27:38;;;;;;;;;;;17.30;70.70;;;;;;5004366;28;93107;-42
2022/09/29 12:30:04;;;;;;;;;;;17.30;70.50;;;;;;5001212;28;93263;-42
2022/09/29 12:32:36;;;;;;;;;;;17.30;70.40;;;;;;5001904;28;92383;-42
2022/09/29 12:35:01;;;;;;;;;;;17.30;70.40;;;;;;5001591;28;92501;-42
2022/09/29 12:37:33;;;;;;;;;;;17.30;70.50;;;;;;5001437;28;92428;-42
2022/09/29 12:40:04;;;;;;;;;;;17.30;70.60;;;;;;5001748;28;92131;-43
2022/09/29 12:42:33;;;;;;;;;;;17.30;70.60;;;;;;5001939;28;92377;-42
2022/09/29 12:45:05;;;;;;;;;;;17.30;70.60;;;;;;5001545;28;92365;-42
2022/09/29 12:47:39;;;;;;;;;;;17.30;70.30;;;;;;5001588;28;92139;-42
2022/09/29 12:50:17;;;;;;;;;;;17.40;70.50;;;;;;5004197;28;92701;-42
2022/09/29 12:53:06;;;;;;;;;;;17.40;70.50;;;;;;5001213;28;92912;-42
2022/09/29 12:55:58;;;;;;;;;;;17.40;70.50;;;;;;4997786;28;93329;-42
2022/09/29 12:58:44;;;;;;;;;;;17.40;70.60;;;;;;4991486;28;93123;-42
2022/09/29 13:01:25;;;;;;;;;;;17.40;70.50;;;;;;5001203;28;92212;-42
2022/09/29 13:03:54;;;;;;;;;;;17.40;70.50;;;;;;5001237;28;92416;-42
2022/09/29 13:06:39;;;;;;;;;;;17.40;70.50;;;;;;5000910;28;92993;-42
2022/09/29 13:09:04;;;;;;;;;;;17.40;70.60;;;;;;5000714;28;92068;-42
2022/09/29 13:11:39;;;;;;;;;;;17.40;70.60;;;;;;5001955;28;92409;-42
2022/09/29 13:14:17;;;;;;;;;;;17.40;70.50;;;;;;5003800;28;93071;-42
2022/09/29 13:16:51;;;;;;;;;;;17.50;70.60;;;;;;4999475;28;93953;-42
2022/09/29 13:19:38;;;;;;;;;;;17.50;70.50;;;;;;4999961;28;94189;-42
2022/09/29 13:22:21;;;;;;;;;;;17.50;70.30;;;;;;5001260;28;92042;-42
2022/09/29 13:24:54;;;;;;;;;;;17.50;70.50;;;;;;5001223;28;92377;-42
2022/09/29 13:27:29;;;;;;;;;;;17.50;70.60;;;;;;5000230;28;93156;-42
2022/09/29 13:29:55;;;;;;;;;;;17.50;70.60;;;;;;5000955;28;92599;-42
2022/09/29 13:32:22;;;;;;;;;;;17.50;70.60;;;;;;5000915;28;92390;-42
2022/09/29 13:34:58;;;;;;;;;;;17.50;70.50;;;;;;5000318;28;92808;-42
2022/09/29 13:37:26;;;;;;;;;;;17.50;70.60;;;;;;5003569;28;91737;-42
2022/09/29 13:39:54;;;;;;;;;;;17.50;70.60;;;;;;5000314;28;92995;-42
2022/09/29 13:42:38;;;;;;;;;;;17.60;70.60;;;;;;5000815;28;92151;-42
2022/09/29 13:45:34;;;;;;;;;;;17.50;70.50;;;;;;5000330;28;92990;-42
2022/09/29 13:48:21;;;;;;;;;;;17.60;70.50;;;;;;5000060;28;93646;-42
2022/09/29 13:50:47;;;;;;;;;;;17.60;70.50;;;;;;4996097;28;93998;-42
2022/09/29 13:53:25;;;;;;;;;;;17.60;70.60;;;;;;5000602;28;92477;-42
2022/09/29 13:55:55;;;;;;;;;;;17.60;70.50;;;;;;4999979;28;93123;-42
2022/09/29 13:58:34;;;;;;;;;;;17.60;70.40;;;;;;5000379;28;92028;-42
2022/09/29 14:01:00;;;;;;;;;;;17.60;70.60;;;;;;5002975;28;91944;-42
2022/09/29 14:03:39;;;;;;;;;;;17.60;70.60;;;;;;5000963;28;91368;-42
2022/09/29 14:06:18;;;;;;;;;;;17.70;70.60;;;;;;5000535;28;92138;-42
2022/09/29 14:09:02;;;;;;;;;;;17.70;70.60;;;;;;4999036;28;92899;-42
2022/09/29 14:11:33;;;;;;;;;;;17.60;70.60;;;;;;4999914;28;93168;-42
2022/09/29 14:14:04;;;;;;;;;;;17.70;70.60;;;;;;5000157;28;93779;-42
2022/09/29 14:16:36;;;;;;;;;;;17.70;70.50;;;;;;4999673;28;93177;-42
2022/09/29 14:19:14;;;;;;;;;;;17.70;70.40;;;;;;5000067;28;92130;-43
2022/09/29 14:22:12;;;;;;;;;;;17.70;70.30;;;;;;5000222;28;92880;-42
2022/09/29 14:24:40;;;;;;;;;;;17.70;70.40;;;;;;4990235;28;92608;-42
2022/09/29 14:27:18;;;;;;;;;;;17.70;70.30;;;;;;5000379;28;92343;-42
2022/09/29 14:29:52;;;;;;;;;;;17.70;70.50;;;;;;4999943;28;91920;-42
2022/09/29 14:32:21;;;;;;;;;;;17.70;70.50;;;;;;4999998;28;92127;-42